createdAt,value
2019-01-29T00:01:16.636Z,21.10
2019-01-29T00:03:44.287Z,21.10
2019-01-29T00:06:11.884Z,21.10
2019-01-29T00:08:39.552Z,21.10
2019-01-29T00:11:07.198Z,21.10
2019-01-29T00:13:34.802Z,21.10
2019-01-29T00:16:02.528Z,21.10
2019-01-29T00:18:30.219Z,21.10
2019-01-29T00:20:57.906Z,21.10
2019-01-29T00:23:25.549Z,21.10
2019-01-29T00:25:53.200Z,21.10
2019-01-29T00:28:20.884Z,21.10
2019-01-29T00:30:48.472Z,21.10
2019-01-29T00:33:16.137Z,21.10
2019-01-29T00:35:43.731Z,21.10
2019-01-29T00:38:11.356Z,21.10
2019-01-29T00:40:39.090Z,21.10
2019-01-29T00:43:06.696Z,21.10
2019-01-29T00:45:34.408Z,21.10
2019-01-29T00:48:02.070Z,21.10
2019-01-29T00:50:29.782Z,21.10
2019-01-29T00:52:57.443Z,21.10
2019-01-29T00:55:25.058Z,21.10
2019-01-29T00:57:52.721Z,21.10
2019-01-29T01:00:21.338Z,21.10
2019-01-29T01:02:48.943Z,21.10
2019-01-29T01:05:16.558Z,21.10
2019-01-29T01:07:44.220Z,21.10
2019-01-29T01:10:13.376Z,21.10
2019-01-29T01:12:41.031Z,21.10
2019-01-29T01:15:09.628Z,21.10
2019-01-29T01:17:37.220Z,21.10
2019-01-29T01:20:06.568Z,21.10
2019-01-29T01:22:34.254Z,21.10
2019-01-29T01:25:01.831Z,21.10
2019-01-29T01:27:29.506Z,21.10
2019-01-29T01:29:57.097Z,21.10
2019-01-29T01:32:24.717Z,21.10
2019-01-29T01:34:52.427Z,21.10
2019-01-29T01:37:20.168Z,21.10
2019-01-29T01:39:47.736Z,21.10
2019-01-29T01:42:15.400Z,21.10
2019-01-29T01:44:42.998Z,21.00
2019-01-29T01:47:10.608Z,21.10
2019-01-29T01:49:38.261Z,21.10
2019-01-29T01:52:05.930Z,21.00
2019-01-29T01:54:33.534Z,21.00
2019-01-29T01:57:01.170Z,21.00
2019-01-29T01:59:28.760Z,21.00
2019-01-29T02:01:56.505Z,21.00
2019-01-29T02:04:24.087Z,21.00
2019-01-29T02:06:51.692Z,21.00
2019-01-29T02:09:19.407Z,21.00
2019-01-29T02:11:47.007Z,21.00
2019-01-29T02:14:14.622Z,21.00
2019-01-29T02:16:42.288Z,21.10
2019-01-29T02:19:09.983Z,21.00
2019-01-29T02:21:37.621Z,21.00
2019-01-29T02:24:05.254Z,21.00
2019-01-29T02:26:32.842Z,21.00
2019-01-29T02:29:00.903Z,21.00
2019-01-29T02:31:28.508Z,21.00
2019-01-29T02:33:56.110Z,21.00
2019-01-29T02:36:23.812Z,21.00
2019-01-29T02:38:51.476Z,21.00
2019-01-29T02:41:19.107Z,21.00
2019-01-29T02:43:46.706Z,21.00
2019-01-29T02:46:14.386Z,21.00
2019-01-29T02:48:41.968Z,21.00
2019-01-29T02:51:09.586Z,21.00
2019-01-29T02:53:37.266Z,21.00
2019-01-29T02:56:04.926Z,21.00
2019-01-29T02:58:32.510Z,21.00
2019-01-29T03:01:00.160Z,21.00
2019-01-29T03:03:27.778Z,21.00
2019-01-29T03:05:55.372Z,21.00
2019-01-29T03:08:23.034Z,21.00
2019-01-29T03:10:50.668Z,21.00
2019-01-29T03:13:18.314Z,21.00
2019-01-29T03:15:45.919Z,21.00
2019-01-29T03:18:13.487Z,21.00
2019-01-29T03:20:41.266Z,21.00
2019-01-29T03:23:08.927Z,21.00
2019-01-29T03:25:36.556Z,21.00
2019-01-29T03:28:04.282Z,21.00
2019-01-29T03:30:31.957Z,21.00
2019-01-29T03:32:59.614Z,21.00
2019-01-29T03:35:27.243Z,21.00
2019-01-29T03:37:54.827Z,21.00
2019-01-29T03:40:23.463Z,21.00
2019-01-29T03:42:51.178Z,21.00
2019-01-29T03:45:18.855Z,21.00
2019-01-29T03:47:46.600Z,20.90
2019-01-29T03:50:15.345Z,21.00
2019-01-29T03:52:42.992Z,21.00
2019-01-29T03:55:10.596Z,20.90
2019-01-29T03:57:38.245Z,20.90
2019-01-29T04:00:07.565Z,21.00
2019-01-29T04:02:35.210Z,21.00
2019-01-29T04:05:03.082Z,20.90
2019-01-29T04:07:30.769Z,20.90
2019-01-29T04:09:58.421Z,20.90
2019-01-29T04:12:26.013Z,20.90
2019-01-29T04:14:53.651Z,20.90
2019-01-29T04:17:21.389Z,20.90
2019-01-29T04:19:49.021Z,20.90
2019-01-29T04:22:16.619Z,20.90
2019-01-29T04:24:44.271Z,20.90
2019-01-29T04:27:11.869Z,21.00
2019-01-29T04:29:39.468Z,20.90
2019-01-29T04:32:07.188Z,20.90
2019-01-29T04:34:34.819Z,20.90
2019-01-29T04:37:02.507Z,21.00
2019-01-29T04:39:30.184Z,20.90
2019-01-29T04:41:57.789Z,20.90
2019-01-29T04:44:25.391Z,20.90
2019-01-29T04:46:53.057Z,20.90
2019-01-29T04:49:20.666Z,20.90
2019-01-29T04:51:48.324Z,20.90
2019-01-29T04:54:15.979Z,20.90
2019-01-29T04:56:43.643Z,20.90
2019-01-29T04:59:11.242Z,20.90
2019-01-29T05:01:38.995Z,20.90
2019-01-29T05:04:06.689Z,20.90
2019-01-29T05:06:34.281Z,20.90
2019-01-29T05:09:01.916Z,20.90
2019-01-29T05:11:29.543Z,20.90
2019-01-29T05:13:57.235Z,20.90
2019-01-29T05:16:24.956Z,20.90
2019-01-29T05:18:52.660Z,20.90
2019-01-29T05:21:20.294Z,20.90
2019-01-29T05:23:47.944Z,20.90
2019-01-29T05:26:15.574Z,20.90
2019-01-29T05:28:43.229Z,20.90
2019-01-29T05:31:10.878Z,20.90
2019-01-29T05:33:38.467Z,20.90
2019-01-29T05:36:06.115Z,20.90
2019-01-29T05:38:33.750Z,20.90
2019-01-29T05:41:01.398Z,20.90
2019-01-29T05:43:29.000Z,20.90
2019-01-29T05:45:56.616Z,20.90
2019-01-29T05:48:24.340Z,20.90
2019-01-29T05:50:52.011Z,20.90
2019-01-29T05:53:19.626Z,20.90
2019-01-29T05:55:47.353Z,20.90
2019-01-29T05:58:15.023Z,20.90
2019-01-29T06:00:42.685Z,20.90
2019-01-29T06:03:10.350Z,20.90
2019-01-29T06:05:38.039Z,20.90
2019-01-29T06:08:05.687Z,20.90
2019-01-29T06:10:33.401Z,20.90
2019-01-29T06:13:01.020Z,20.90
2019-01-29T06:15:28.722Z,20.90
2019-01-29T06:17:56.318Z,20.90
2019-01-29T06:20:25.539Z,20.90
2019-01-29T06:22:53.352Z,20.90
2019-01-29T06:25:20.935Z,20.90
2019-01-29T06:27:48.551Z,20.90
2019-01-29T06:30:17.267Z,20.90
2019-01-29T06:32:44.850Z,20.90
2019-01-29T06:35:13.310Z,20.90
2019-01-29T06:37:41.003Z,20.90
2019-01-29T06:40:09.965Z,20.90
2019-01-29T06:42:37.549Z,20.90
2019-01-29T06:45:11.821Z,21.00
2019-01-29T06:47:39.437Z,21.00
2019-01-29T06:50:08.553Z,21.10
2019-01-29T06:52:36.182Z,21.10
2019-01-29T06:55:05.146Z,21.10
2019-01-29T06:57:32.833Z,21.10
2019-01-29T07:00:00.447Z,21.10
2019-01-29T07:02:28.087Z,21.20
2019-01-29T07:04:55.743Z,21.20
2019-01-29T07:07:23.455Z,21.20
2019-01-29T07:09:51.102Z,21.20
2019-01-29T07:12:18.752Z,21.20
2019-01-29T07:14:46.355Z,21.20
2019-01-29T07:17:21.702Z,21.20
2019-01-29T07:19:49.458Z,21.50
2019-01-29T07:22:17.136Z,21.20
2019-01-29T07:24:44.834Z,21.20
2019-01-29T07:27:12.410Z,21.20
2019-01-29T07:29:40.077Z,21.10
2019-01-29T07:32:07.674Z,21.10
2019-01-29T07:34:35.326Z,21.10
2019-01-29T07:37:02.983Z,21.10
2019-01-29T07:39:30.642Z,21.10
2019-01-29T07:41:58.245Z,21.10
2019-01-29T07:44:25.835Z,21.00
2019-01-29T07:46:53.502Z,21.00
2019-01-29T07:49:21.117Z,21.00
2019-01-29T07:51:48.720Z,21.00
2019-01-29T07:54:16.474Z,21.00
2019-01-29T07:56:44.097Z,21.00
2019-01-29T07:59:11.689Z,21.00
2019-01-29T08:01:39.373Z,21.00
2019-01-29T08:04:07.016Z,21.00
2019-01-29T08:06:34.612Z,20.90
2019-01-29T08:09:02.290Z,21.00
2019-01-29T08:11:29.876Z,20.90
2019-01-29T08:13:57.543Z,20.90
2019-01-29T08:16:25.208Z,20.90
2019-01-29T08:18:52.844Z,20.90
2019-01-29T08:21:20.502Z,20.90
2019-01-29T08:23:48.082Z,20.90
2019-01-29T08:26:15.681Z,20.90
2019-01-29T08:28:43.311Z,20.90
2019-01-29T08:31:10.886Z,20.90
2019-01-29T08:33:38.533Z,20.90
2019-01-29T08:36:06.139Z,20.90
2019-01-29T08:38:33.794Z,20.90
2019-01-29T08:41:01.471Z,20.90
2019-01-29T08:43:29.124Z,20.90
2019-01-29T08:45:56.776Z,20.90
2019-01-29T08:48:24.378Z,20.90
2019-01-29T08:50:51.972Z,20.90
2019-01-29T08:53:19.630Z,20.90
2019-01-29T08:55:47.222Z,20.90
2019-01-29T08:58:14.809Z,20.90
2019-01-29T09:00:42.463Z,20.90
2019-01-29T09:03:10.158Z,20.90
2019-01-29T09:05:37.908Z,20.90
2019-01-29T09:08:05.511Z,20.90
2019-01-29T09:10:33.113Z,20.90
2019-01-29T09:13:00.748Z,20.90
2019-01-29T09:15:28.423Z,20.90
2019-01-29T09:17:56.043Z,20.90
2019-01-29T09:20:23.648Z,20.90
2019-01-29T09:22:51.295Z,20.90
2019-01-29T09:25:22.308Z,20.90
2019-01-29T09:27:48.234Z,20.90
2019-01-29T09:30:16.287Z,20.90
2019-01-29T09:32:43.937Z,20.90
2019-01-29T09:35:11.540Z,20.90
2019-01-29T09:37:39.213Z,20.90
2019-01-29T09:40:16.695Z,20.90
2019-01-29T09:42:44.340Z,20.90
2019-01-29T09:45:13.182Z,20.90
2019-01-29T09:47:40.850Z,20.90
2019-01-29T09:50:09.899Z,20.90
2019-01-29T09:52:37.564Z,20.90
2019-01-29T09:55:06.862Z,20.90
2019-01-29T09:57:34.542Z,20.90
2019-01-29T10:00:02.257Z,20.90
2019-01-29T10:02:29.861Z,20.90
2019-01-29T10:04:57.477Z,20.90
2019-01-29T10:07:25.109Z,20.90
2019-01-29T10:09:52.715Z,20.90
2019-01-29T10:12:20.303Z,20.90
2019-01-29T10:14:47.954Z,20.90
2019-01-29T10:17:15.919Z,20.90
2019-01-29T10:19:43.584Z,20.90
2019-01-29T10:22:11.250Z,20.90
2019-01-29T10:24:38.949Z,20.90
2019-01-29T10:27:06.535Z,20.90
2019-01-29T10:29:34.171Z,20.90
2019-01-29T10:32:01.765Z,20.90
2019-01-29T10:34:29.568Z,20.90
2019-01-29T10:36:57.188Z,20.90
2019-01-29T10:39:24.845Z,20.90
2019-01-29T10:41:52.517Z,20.90
2019-01-29T10:44:20.114Z,20.90
2019-01-29T10:46:47.732Z,20.90
2019-01-29T10:49:15.422Z,20.90
2019-01-29T10:51:43.029Z,20.90
2019-01-29T10:54:10.626Z,20.90
2019-01-29T10:56:38.383Z,20.90
2019-01-29T10:59:06.163Z,20.90
2019-01-29T11:01:33.764Z,20.90
2019-01-29T11:04:01.411Z,20.90
2019-01-29T11:06:29.077Z,20.90
2019-01-29T11:08:56.714Z,20.90
2019-01-29T11:11:24.318Z,20.90
2019-01-29T11:13:53.610Z,20.90
2019-01-29T11:16:21.333Z,20.90
2019-01-29T11:18:48.937Z,20.90
2019-01-29T11:21:16.561Z,20.90
2019-01-29T11:23:44.277Z,20.90
2019-01-29T11:26:11.884Z,20.90
2019-01-29T11:28:39.535Z,20.90
2019-01-29T11:31:07.123Z,20.90
2019-01-29T11:33:34.734Z,20.90
2019-01-29T11:36:02.387Z,20.90
2019-01-29T11:38:29.970Z,20.90
2019-01-29T11:40:57.611Z,20.90
2019-01-29T11:43:25.265Z,20.90
2019-01-29T11:45:53.073Z,20.90
2019-01-29T11:48:20.709Z,20.90
2019-01-29T11:50:48.352Z,20.90
2019-01-29T11:53:16.119Z,20.90
2019-01-29T11:55:43.703Z,20.90
2019-01-29T11:58:11.322Z,20.90
2019-01-29T12:00:40.650Z,20.90
2019-01-29T12:03:08.252Z,20.90
2019-01-29T12:05:35.877Z,20.90
2019-01-29T12:08:03.690Z,20.90
2019-01-29T12:10:31.295Z,20.90
2019-01-29T12:12:59.086Z,20.90
2019-01-29T12:15:26.679Z,20.90
2019-01-29T12:17:54.280Z,20.90
2019-01-29T12:20:21.924Z,20.90
2019-01-29T12:22:49.617Z,20.90
2019-01-29T12:25:17.224Z,20.90
2019-01-29T12:27:44.925Z,20.90
2019-01-29T12:30:20.162Z,20.90
2019-01-29T12:32:47.973Z,20.90
2019-01-29T12:35:15.588Z,20.90
2019-01-29T12:37:43.221Z,20.90
2019-01-29T12:40:11.438Z,20.90
2019-01-29T12:42:39.051Z,20.90
2019-01-29T12:45:08.413Z,20.90
2019-01-29T12:47:36.029Z,20.90
2019-01-29T12:50:05.201Z,20.90
2019-01-29T12:52:34.455Z,21.20
2019-01-29T12:55:02.171Z,20.90
2019-01-29T12:57:29.751Z,20.90
2019-01-29T12:59:57.345Z,20.90
2019-01-29T13:02:25.001Z,20.90
2019-01-29T13:04:52.701Z,20.90
2019-01-29T13:07:20.274Z,20.90
2019-01-29T13:09:47.920Z,20.90
2019-01-29T13:12:15.518Z,20.90
2019-01-29T13:14:43.097Z,20.90
2019-01-29T13:17:10.745Z,20.90
2019-01-29T13:19:38.333Z,20.90
2019-01-29T13:22:05.943Z,20.90
2019-01-29T13:24:33.597Z,20.90
2019-01-29T13:27:01.267Z,20.90
2019-01-29T13:29:28.935Z,20.90
2019-01-29T13:31:56.581Z,20.90
2019-01-29T13:34:24.250Z,20.90
2019-01-29T13:36:51.855Z,20.90
2019-01-29T13:39:19.546Z,20.90
2019-01-29T13:41:47.187Z,20.90
2019-01-29T13:44:14.886Z,20.90
2019-01-29T13:46:42.553Z,20.90
2019-01-29T13:49:10.165Z,20.90
2019-01-29T13:51:37.905Z,20.90
2019-01-29T13:54:05.503Z,20.90
2019-01-29T13:56:38.794Z,20.90
2019-01-29T13:59:02.457Z,20.90
2019-01-29T14:01:30.055Z,20.90
2019-01-29T14:04:06.083Z,20.90
2019-01-29T14:06:28.053Z,20.90
2019-01-29T14:08:55.662Z,20.90
2019-01-29T14:11:23.352Z,20.90
2019-01-29T14:13:53.756Z,20.90
2019-01-29T14:16:21.338Z,20.90
2019-01-29T14:18:49.005Z,20.90
2019-01-29T14:21:16.606Z,20.90
2019-01-29T14:23:44.185Z,20.90
2019-01-29T14:26:12.581Z,20.90
2019-01-29T14:28:40.318Z,20.90
2019-01-29T14:31:08.002Z,20.90
2019-01-29T14:33:35.634Z,20.90
2019-01-29T14:36:03.230Z,20.90
2019-01-29T14:38:32.484Z,20.90
2019-01-29T14:41:00.876Z,20.90
2019-01-29T14:43:30.231Z,20.90
2019-01-29T14:45:58.563Z,20.90
2019-01-29T14:48:29.767Z,20.90
2019-01-29T14:50:57.550Z,20.90
2019-01-29T14:53:25.172Z,20.90
2019-01-29T14:55:52.897Z,20.90
2019-01-29T14:58:20.622Z,20.90
2019-01-29T15:00:48.284Z,20.90
2019-01-29T15:03:16.008Z,20.90
2019-01-29T15:05:43.742Z,20.90
2019-01-29T15:08:11.479Z,20.90
2019-01-29T15:10:39.202Z,20.90
2019-01-29T15:13:06.934Z,20.90
2019-01-29T15:15:39.408Z,20.90
2019-01-29T15:18:20.558Z,20.90
2019-01-29T15:20:48.294Z,20.90
2019-01-29T15:23:15.974Z,20.90
2019-01-29T15:25:43.718Z,20.90
2019-01-29T15:28:11.408Z,20.90
2019-01-29T15:30:39.196Z,20.90
2019-01-29T15:33:06.890Z,20.90
2019-01-29T15:35:34.706Z,20.90
2019-01-29T15:38:02.426Z,20.90
2019-01-29T15:40:30.486Z,20.90
2019-01-29T15:42:58.256Z,20.90
2019-01-29T15:45:26.820Z,20.90
2019-01-29T15:47:54.474Z,20.90
2019-01-29T15:50:22.890Z,20.90
2019-01-29T15:52:50.650Z,20.80
2019-01-29T15:55:18.357Z,20.80
2019-01-29T15:57:46.623Z,20.90
2019-01-29T16:00:15.935Z,20.90
2019-01-29T16:02:43.620Z,20.80
2019-01-29T16:05:12.971Z,20.80
2019-01-29T16:07:40.752Z,20.90
2019-01-29T16:10:10.044Z,20.80
2019-01-29T16:12:37.706Z,20.90
2019-01-29T16:15:07.114Z,20.90
2019-01-29T16:17:34.818Z,20.80
2019-01-29T16:20:02.554Z,20.90
2019-01-29T16:22:30.172Z,21.00
2019-01-29T16:24:57.822Z,20.80
2019-01-29T16:27:25.641Z,20.90
2019-01-29T16:29:53.282Z,20.90
2019-01-29T16:32:20.976Z,20.80
2019-01-29T16:34:48.710Z,20.80
2019-01-29T16:37:16.451Z,20.80
2019-01-29T16:39:44.188Z,20.90
2019-01-29T16:42:13.346Z,20.90
2019-01-29T16:44:41.369Z,20.80
2019-01-29T16:47:09.030Z,20.90
2019-01-29T16:49:36.752Z,20.80
2019-01-29T16:52:04.771Z,20.80
2019-01-29T16:54:32.421Z,20.90
2019-01-29T16:57:01.256Z,20.80
2019-01-29T16:59:28.982Z,20.90
2019-01-29T17:01:56.711Z,21.00
2019-01-29T17:04:24.401Z,21.10
2019-01-29T17:06:52.112Z,21.30
2019-01-29T17:09:19.852Z,21.50
2019-01-29T17:11:47.464Z,21.50
2019-01-29T17:14:15.056Z,21.70
2019-01-29T17:16:42.758Z,21.70
2019-01-29T17:19:10.414Z,21.70
2019-01-29T17:21:38.105Z,21.70
2019-01-29T17:24:05.739Z,21.70
2019-01-29T17:26:33.371Z,21.70
2019-01-29T17:29:01.023Z,21.60
2019-01-29T17:31:28.724Z,21.60
2019-01-29T17:33:56.372Z,21.60
2019-01-29T17:36:23.965Z,21.60
2019-01-29T17:38:51.623Z,21.60
2019-01-29T17:41:19.317Z,21.60
2019-01-29T17:43:46.899Z,21.60
2019-01-29T17:46:14.555Z,21.60
2019-01-29T17:48:42.244Z,21.50
2019-01-29T17:51:09.834Z,21.60
2019-01-29T17:53:37.514Z,21.50
2019-01-29T17:56:05.097Z,21.50
2019-01-29T17:58:32.747Z,21.50
2019-01-29T18:01:00.444Z,21.50
2019-01-29T18:03:28.068Z,21.50
2019-01-29T18:05:55.685Z,21.50
2019-01-29T18:08:23.354Z,21.40
2019-01-29T18:10:50.947Z,21.40
2019-01-29T18:13:18.594Z,21.40
2019-01-29T18:15:46.220Z,21.40
2019-01-29T18:18:13.816Z,21.40
2019-01-29T18:20:41.537Z,21.30
2019-01-29T18:23:09.177Z,21.30
2019-01-29T18:25:36.855Z,21.30
2019-01-29T18:28:04.522Z,21.20
2019-01-29T18:30:32.975Z,21.20
2019-01-29T18:33:00.652Z,21.20
2019-01-29T18:35:28.350Z,21.20
2019-01-29T18:37:56.009Z,21.20
2019-01-29T18:40:25.348Z,21.20
2019-01-29T18:42:53.039Z,21.20
2019-01-29T18:45:20.695Z,21.20
2019-01-29T18:47:48.368Z,21.20
2019-01-29T18:50:17.208Z,21.20
2019-01-29T18:52:44.855Z,21.20
2019-01-29T18:55:12.539Z,21.20
2019-01-29T18:57:40.469Z,21.20
2019-01-29T19:00:09.709Z,21.20
2019-01-29T19:02:37.425Z,21.20
2019-01-29T19:05:06.408Z,21.20
2019-01-29T19:07:34.050Z,21.20
2019-01-29T19:10:01.756Z,21.20
2019-01-29T19:12:29.377Z,21.20
2019-01-29T19:14:57.073Z,21.20
2019-01-29T19:17:24.703Z,21.20
2019-01-29T19:19:52.321Z,21.20
2019-01-29T19:22:22.509Z,21.20
2019-01-29T19:24:49.324Z,21.20
2019-01-29T19:27:17.045Z,21.20
2019-01-29T19:29:44.713Z,21.20
2019-01-29T19:32:12.356Z,21.20
2019-01-29T19:34:40.017Z,21.20
2019-01-29T19:37:07.673Z,21.20
2019-01-29T19:39:35.279Z,21.20
2019-01-29T19:42:02.935Z,21.20
2019-01-29T19:44:30.622Z,21.10
2019-01-29T19:46:58.238Z,21.10
2019-01-29T19:49:26.007Z,21.10
2019-01-29T19:51:53.743Z,21.10
2019-01-29T19:54:21.456Z,21.10
2019-01-29T19:56:49.122Z,21.10
2019-01-29T19:59:16.865Z,21.10
2019-01-29T20:01:44.612Z,21.10
2019-01-29T20:04:12.361Z,21.10
2019-01-29T20:06:39.994Z,21.20
2019-01-29T20:09:09.218Z,21.10
2019-01-29T20:11:36.841Z,21.10
2019-01-29T20:14:04.493Z,21.10
2019-01-29T20:16:32.229Z,21.10
2019-01-29T20:18:59.894Z,21.10
2019-01-29T20:21:27.574Z,21.10
2019-01-29T20:23:55.239Z,21.10
2019-01-29T20:26:22.837Z,21.10
2019-01-29T20:28:50.479Z,21.10
2019-01-29T20:31:18.089Z,21.10
2019-01-29T20:33:45.760Z,21.10
2019-01-29T20:36:13.452Z,21.00
2019-01-29T20:38:41.170Z,21.10
2019-01-29T20:41:08.749Z,21.00
2019-01-29T20:43:36.390Z,21.00
2019-01-29T20:46:04.036Z,21.00
2019-01-29T20:48:31.708Z,21.10
2019-01-29T20:50:59.416Z,21.00
2019-01-29T20:53:27.141Z,21.00
2019-01-29T20:55:54.936Z,21.00
2019-01-29T20:58:22.650Z,21.00
2019-01-29T21:00:50.400Z,21.00
2019-01-29T21:03:18.066Z,21.00
2019-01-29T21:05:46.103Z,21.00
2019-01-29T21:08:13.755Z,21.00
2019-01-29T21:10:41.344Z,21.00
2019-01-29T21:13:11.609Z,21.00
2019-01-29T21:15:39.964Z,21.00
2019-01-29T21:18:07.607Z,21.00
2019-01-29T21:20:35.311Z,21.00
2019-01-29T21:23:02.979Z,21.00
2019-01-29T21:25:30.622Z,21.00
2019-01-29T21:27:58.230Z,21.00
2019-01-29T21:30:29.760Z,21.00
2019-01-29T21:32:57.364Z,21.00
2019-01-29T21:35:25.076Z,21.00
2019-01-29T21:37:52.686Z,21.00
2019-01-29T21:40:20.418Z,21.00
2019-01-29T21:42:48.127Z,21.00
2019-01-29T21:45:22.371Z,21.00
2019-01-29T21:47:50.154Z,21.00
2019-01-29T21:50:22.897Z,21.00
2019-01-29T21:52:50.588Z,21.00
2019-01-29T21:55:18.253Z,21.00
2019-01-29T21:57:46.111Z,21.00
2019-01-29T22:00:24.394Z,21.00
2019-01-29T22:02:51.978Z,21.00
2019-01-29T22:05:19.579Z,21.00
2019-01-29T22:07:47.667Z,21.00
2019-01-29T22:10:15.650Z,21.00
2019-01-29T22:12:43.288Z,21.00
2019-01-29T22:15:12.591Z,21.00
2019-01-29T22:17:40.194Z,21.00
2019-01-29T22:20:15.227Z,21.00
2019-01-29T22:22:42.822Z,21.00
2019-01-29T22:25:11.682Z,21.00
2019-01-29T22:27:39.354Z,21.00
2019-01-29T22:30:08.632Z,21.00
2019-01-29T22:32:36.238Z,21.00
2019-01-29T22:35:04.679Z,21.00
2019-01-29T22:37:32.254Z,21.00
2019-01-29T22:39:59.884Z,21.00
2019-01-29T22:42:27.495Z,21.00
2019-01-29T22:44:55.097Z,20.90
2019-01-29T22:47:22.869Z,21.00
2019-01-29T22:49:52.128Z,21.00
2019-01-29T22:52:19.726Z,21.00
2019-01-29T22:54:47.376Z,20.90
2019-01-29T22:57:14.976Z,20.90
2019-01-29T22:59:42.597Z,20.90
2019-01-29T23:02:10.284Z,20.90
2019-01-29T23:04:37.940Z,20.90
2019-01-29T23:07:05.625Z,20.90
2019-01-29T23:09:33.297Z,20.90
2019-01-29T23:12:00.922Z,20.90
2019-01-29T23:14:28.729Z,20.90
2019-01-29T23:16:56.410Z,20.90
2019-01-29T23:19:24.100Z,20.90
2019-01-29T23:21:51.724Z,20.90
2019-01-29T23:24:19.317Z,20.90
2019-01-29T23:26:46.949Z,20.90
2019-01-29T23:29:17.052Z,20.90
2019-01-29T23:31:43.971Z,20.90
2019-01-29T23:34:11.623Z,20.90
2019-01-29T23:36:39.221Z,20.90
2019-01-29T23:39:07.100Z,20.90
2019-01-29T23:41:34.817Z,20.90
2019-01-29T23:44:02.472Z,20.90
2019-01-29T23:46:30.067Z,20.90
2019-01-29T23:48:57.651Z,20.90
2019-01-29T23:51:25.304Z,20.90
2019-01-29T23:53:52.920Z,20.90
2019-01-29T23:56:20.497Z,20.90
2019-01-29T23:58:48.151Z,20.90
